Time;durP1;ratioP1;P1;durP2;ratioP2;P2;SDS_P1;SDS_P2;PMS_P1;PMS_P2;Temp;Humidity;BMP_temperature;BMP_pressure;BME280_temperature;BME280_humidity;BME280_pressure;Samples;Min_cycle;Max_cycle;Signal;HPM_P1;HPM_P2
2021/12/21 04:31:43;;;;;;;6.13;5.17;;;;;;;0.66;56.99;99557.81;7753803;23;20220;-82
2021/12/21 04:35:06;;;;;;;9.47;6.37;;;;;;;0.59;56.84;99553.97;6881878;28;20224;-82
2021/12/21 04:38:32;;;;;;;13.73;6.87;;;;;;;0.49;57.76;99554.84;6900538;28;20235;-82
2021/12/21 04:41:53;;;;;;;10.73;5.97;;;;;;;0.37;57.78;99564.63;6886566;28;20256;-82
2021/12/21 04:45:15;;;;;;;9.33;5.70;;;;;;;0.30;57.53;99520.19;6855231;28;20216;-81
2021/12/21 04:48:38;;;;;;;7.27;5.10;;;;;;;0.47;56.92;99562.94;6847916;28;20202;-82
2021/12/21 04:51:59;;;;;;;9.67;5.27;;;;;;;0.43;56.82;99542.91;6847844;28;20217;-82
2021/12/21 04:55:21;;;;;;;8.00;5.67;;;;;;;0.59;57.25;99553.97;6847640;28;20217;-82
2021/12/21 04:58:43;;;;;;;7.57;5.60;;;;;;;0.49;57.53;99557.50;6848340;28;20216;-81
2021/12/21 05:02:05;;;;;;;6.03;5.00;;;;;;;0.70;56.53;99556.59;6860152;28;20233;-81
2021/12/21 05:05:28;;;;;;;11.17;5.73;;;;;;;0.80;55.73;99546.94;6859659;28;20209;-80
2021/12/21 05:09:03;;;;;;;8.37;5.40;;;;;;;0.83;55.73;99522.78;6852057;28;20216;-80
2021/12/21 05:12:25;;;;;;;7.87;5.27;;;;;;;0.64;55.18;99541.19;6853548;28;20320;-81
2021/12/21 05:15:47;;;;;;;13.93;6.63;;;;;;;0.17;56.60;99524.75;6844390;29;20237;-80
2021/12/21 05:19:09;;;;;;;11.63;6.20;;;;;;;0.30;57.38;99536.91;6845295;28;20685;-81
2021/12/21 05:22:32;;;;;;;10.67;6.40;;;;;;;0.44;57.14;99527.84;6859406;28;20229;-82
2021/12/21 05:25:53;;;;;;;10.30;7.03;;;;;;;0.43;56.46;99532.31;6844404;28;20212;-81
2021/12/21 05:29:15;;;;;;;10.93;5.90;;;;;;;0.31;56.64;99513.91;6844225;28;20236;-80
2021/12/21 05:32:36;;;;;;;14.07;6.23;;;;;;;0.10;57.60;99520.91;6844872;28;20293;-82
2021/12/21 05:35:58;;;;;;;10.30;6.23;;;;;;;0.09;57.81;99543.09;6844250;28;20233;-81
2021/12/21 05:39:24;;;;;;;6.83;5.93;;;;;;;0.25;57.27;99536.44;6861549;28;20232;-81
2021/12/21 05:42:48;;;;;;;6.77;5.03;;;;;;;0.40;56.74;99526.41;6855173;28;20701;-82
2021/12/21 05:46:09;;;;;;;11.10;6.20;;;;;;;0.21;56.42;99535.03;6857901;28;20240;-80
2021/12/21 05:49:33;;;;;;;8.00;5.40;;;;;;;0.38;56.88;99531.00;6870526;28;20225;-80
2021/12/21 05:52:55;;;;;;;13.27;5.63;;;;;;;0.60;56.55;99530.97;6859679;28;20606;-80
2021/12/21 05:56:18;;;;;;;6.63;5.30;;;;;;;0.77;56.13;99517.97;6843903;28;20741;-80
2021/12/21 05:59:39;;;;;;;7.27;4.93;;;;;;;0.21;56.30;99494.41;6848858;28;20264;-81
2021/12/21 06:03:01;;;;;;;7.53;5.07;;;;;;;0.46;56.07;99504.69;6850636;28;20221;-81
2021/12/21 06:06:23;;;;;;;8.17;5.87;;;;;;;0.39;55.99;99527.38;6844304;28;20212;-81
2021/12/21 06:09:47;;;;;;;12.33;5.80;;;;;;;0.11;56.63;99530.56;6852740;28;20206;-80
2021/12/21 06:13:27;;;;;;;6.77;5.13;;;;;;;0.44;56.44;99526.06;6852955;28;20292;-81
2021/12/21 06:27:55;;;;;;;13.87;7.53;;;;;;;0.40;55.45;99524.63;6807697;28;20208;-81
2021/12/21 06:31:19;;;;;;;10.47;5.57;;;;;;;-0.08;56.40;99497.72;6871206;28;20229;-79
2021/12/21 06:34:44;;;;;;;10.93;7.00;;;;;;;-0.18;56.26;99504.69;6869523;28;20199;-80
2021/12/21 06:38:06;;;;;;;9.13;7.33;;;;;;;0.35;56.18;99532.09;6861906;28;20543;-79
2021/12/21 06:41:28;;;;;;;12.33;5.60;;;;;;;0.23;56.32;99532.22;6844950;28;20740;-80
2021/12/21 06:44:54;;;;;;;8.97;6.40;;;;;;;-0.07;56.48;99537.31;6862330;28;20201;-80
2021/12/21 06:51:58;;;;;;;9.90;6.97;;;;;;;0.21;57.00;99527.06;6848605;29;20588;-81
2021/12/21 06:55:20;;;;;;;8.63;6.53;;;;;;;-0.08;57.69;99516.25;6862879;28;20668;-81
2021/12/21 06:58:41;;;;;;;9.63;6.73;;;;;;;0.20;56.79;99505.97;6862253;28;20724;-81
2021/12/21 07:02:04;;;;;;;6.67;5.40;;;;;;;0.26;56.64;99521.38;6842956;28;20709;-80
2021/12/21 07:05:28;;;;;;;9.03;5.30;;;;;;;0.25;55.61;99533.78;6844043;28;20224;-83
2021/12/21 07:08:58;;;;;;;6.83;4.90;;;;;;;0.53;55.24;99519.16;6857441;28;20208;-81
2021/12/21 07:17:46;;;;;;;11.43;5.60;;;;;;;0.12;55.81;99487.19;6868974;28;20225;-80
2021/12/21 07:19:46;;;;;;;14.50;6.07;;;;;;;0.11;56.29;99536.72;6849618;28;20234;-80
2021/12/21 07:23:09;;;;;;;7.40;6.67;;;;;;;0.05;56.09;99505.41;6851720;28;20235;-80
2021/12/21 07:26:31;;;;;;;11.37;7.57;;;;;;;-0.01;56.68;99519.13;6855852;28;20193;-80
2021/12/21 07:29:53;;;;;;;9.87;7.17;;;;;;;0.17;55.97;99524.75;6859753;28;20209;-79
2021/12/21 07:33:15;;;;;;;14.47;7.63;;;;;;;-0.04;56.42;99539.75;6868119;28;20229;-81
2021/12/21 07:36:37;;;;;;;9.17;7.40;;;;;;;0.33;56.11;99535.84;6863859;28;20205;-80
2021/12/21 07:40:00;;;;;;;12.40;6.67;;;;;;;-0.23;56.73;99505.06;6857409;28;20225;-79
2021/12/21 07:43:22;;;;;;;6.97;6.07;;;;;;;0.60;55.56;99550.34;6858450;28;20239;-81
2021/12/21 07:46:43;;;;;;;8.23;5.77;;;;;;;0.64;54.83;99550.94;6865838;28;20200;-79
2021/12/21 07:50:07;;;;;;;11.17;6.57;;;;;;;-0.24;55.38;99503.34;6860757;28;20201;-80
2021/12/21 07:53:29;;;;;;;9.83;6.17;;;;;;;0.58;55.30;99573.53;6876219;28;20249;-79
2021/12/21 07:56:51;;;;;;;6.80;6.07;;;;;;;0.25;56.03;99572.75;6874897;28;20201;-80
2021/12/21 08:00:14;;;;;;;6.30;5.37;;;;;;;0.24;56.73;99540.06;6873971;28;20225;-80
2021/12/21 08:03:37;;;;;;;9.30;6.40;;;;;;;0.44;55.92;99541.97;6874419;28;20190;-78
2021/12/21 08:07:04;;;;;;;7.77;5.87;;;;;;;0.28;55.73;99544.16;6863206;29;20197;-80
2021/12/21 08:10:29;;;;;;;9.83;7.20;;;;;;;-0.21;55.95;99511.06;6868508;28;20260;-78
2021/12/21 08:13:53;;;;;;;11.60;7.83;;;;;;;0.78;56.23;99564.78;6872612;28;20596;-78
2021/12/21 08:17:15;;;;;;;10.53;6.27;;;;;;;1.15;56.09;99576.72;6850658;28;20198;-80
2021/12/21 08:20:36;;;;;;;10.53;7.43;;;;;;;1.09;55.21;99549.81;6854905;28;20231;-79
2021/12/21 08:23:58;;;;;;;12.73;6.70;;;;;;;0.93;53.97;99566.19;6864548;28;20336;-80
2021/12/21 08:27:20;;;;;;;10.30;6.97;;;;;;;0.62;56.35;99563.50;6848144;28;20215;-79
2021/12/21 08:30:43;;;;;;;17.77;9.60;;;;;;;1.34;55.57;99547.63;6866293;28;20272;-79
2021/12/21 08:34:05;;;;;;;18.53;11.10;;;;;;;1.64;54.48;99576.06;6852459;28;20205;-80
2021/12/21 08:37:27;;;;;;;24.40;8.90;;;;;;;1.69;54.31;99569.41;6843934;28;20210;-80
2021/12/21 08:40:50;;;;;;;10.83;8.70;;;;;;;1.67;53.90;99534.13;6847156;28;20307;-80
2021/12/21 08:44:12;;;;;;;13.87;9.33;;;;;;;3.36;51.44;99551.59;6851149;28;20283;-80
2021/12/21 08:47:36;;;;;;;15.23;10.37;;;;;;;3.96;48.17;99568.03;6857220;28;20242;-79
2021/12/21 08:50:58;;;;;;;15.77;8.90;;;;;;;3.66;49.52;99562.09;6856496;28;20214;-79
2021/12/21 08:54:20;;;;;;;12.13;8.27;;;;;;;2.81;50.95;99546.97;6850560;28;20202;-80
2021/12/21 08:57:42;;;;;;;13.43;8.53;;;;;;;2.40;52.00;99553.34;6849781;28;20290;-80
2021/12/21 09:01:03;;;;;;;19.13;10.23;;;;;;;2.37;53.73;99579.38;6860349;28;20221;-80
2021/12/21 09:04:27;;;;;;;11.37;8.43;;;;;;;2.67;53.96;99532.22;6865292;28;20212;-80
2021/12/21 09:07:52;;;;;;;9.63;7.87;;;;;;;3.34;52.80;99567.75;6854760;28;20198;-81
2021/12/21 09:11:13;;;;;;;11.63;7.80;;;;;;;3.43;52.72;99550.06;6849892;28;20217;-81
2021/12/21 09:14:35;;;;;;;12.50;7.60;;;;;;;3.42;51.61;99506.56;6855004;28;20737;-80
2021/12/21 09:17:57;;;;;;;12.23;7.97;;;;;;;3.48;52.41;99556.63;6855731;28;20221;-81
2021/12/21 09:21:20;;;;;;;10.47;7.17;;;;;;;3.13;52.12;99566.19;6862567;28;20681;-81
2021/12/21 09:24:41;;;;;;;9.60;7.57;;;;;;;3.16;53.01;99560.56;6860747;28;20655;-80
2021/12/21 09:28:03;;;;;;;14.27;7.80;;;;;;;3.61;52.98;99541.16;6860862;28;20212;-82
2021/12/21 09:31:24;;;;;;;8.90;7.47;;;;;;;4.17;51.63;99539.31;6860477;28;20237;-80
2021/12/21 09:34:47;;;;;;;13.47;9.60;;;;;;;4.50;52.17;99533.41;6864122;28;20588;-81
2021/12/21 09:38:10;;;;;;;13.27;9.60;;;;;;;4.30;52.36;99545.16;6858584;28;20576;-85
2021/12/21 09:41:32;;;;;;;55.07;19.63;;;;;;;4.50;51.73;99528.06;6853662;28;20232;-82
2021/12/21 09:44:54;;;;;;;17.03;10.33;;;;;;;4.42;53.27;99521.78;6868278;28;20678;-82
2021/12/21 09:48:16;;;;;;;17.53;9.83;;;;;;;4.86;53.45;99505.75;6864108;28;20626;-85
2021/12/21 09:51:38;;;;;;;13.13;9.70;;;;;;;4.85;52.16;99544.09;6858996;28;20225;-82
2021/12/21 09:55:03;;;;;;;14.90;9.97;;;;;;;5.20;54.22;99541.44;6854455;28;20209;-83
2021/12/21 09:58:25;;;;;;;15.47;10.50;;;;;;;4.98;52.36;99512.53;6851643;28;20213;-82
2021/12/21 10:01:46;;;;;;;22.63;14.50;;;;;;;5.37;52.23;99540.59;6857551;28;20653;-85
2021/12/21 10:05:11;;;;;;;17.30;9.90;;;;;;;5.75;53.52;99534.03;6866752;28;20208;-85
2021/12/21 10:08:34;;;;;;;18.77;10.17;;;;;;;6.19;50.76;99533.81;6853210;28;20220;-84
2021/12/21 10:11:57;;;;;;;16.43;10.67;;;;;;;5.69;52.11;99487.34;6864810;28;20228;-82
2021/12/21 10:15:21;;;;;;;21.47;14.63;;;;;;;6.57;50.64;99486.94;6865610;28;20204;-84
2021/12/21 10:18:42;;;;;;;21.03;11.40;;;;;;;6.22;50.21;99492.50;6866861;28;20197;-83
2021/12/21 10:22:11;;;;;;;17.60;10.77;;;;;;;6.31;49.37;99512.97;6848621;28;20252;-85
2021/12/21 10:25:33;;;;;;;19.17;11.93;;;;;;;6.91;50.51;99496.59;6844544;28;20643;-81
2021/12/21 10:29:01;;;;;;;17.97;11.17;;;;;;;7.12;49.35;99483.53;6847679;28;20217;-80
2021/12/21 10:47:51;;;;;;;12.13;5.43;;;;;;;7.27;47.29;99487.22;6705572;29;20221;-85
2021/12/21 10:51:16;;;;;;;6.47;4.37;;;;;;;7.18;45.30;99474.81;6762807;29;20229;-87
2021/12/21 10:54:40;;;;;;;8.60;4.43;;;;;;;6.63;45.79;99491.66;6829271;28;20211;-85
2021/12/21 10:58:20;;;;;;;5.60;4.03;;;;;;;6.06;48.11;99479.88;6851448;29;20232;-86
2021/12/21 11:01:44;;;;;;;9.00;4.67;;;;;;;5.79;49.04;99480.03;6855383;28;20226;-87
2021/12/21 11:05:10;;;;;;;8.83;4.50;;;;;;;5.68;48.74;99474.13;6852586;29;20285;-85
2021/12/21 11:08:37;;;;;;;9.50;4.53;;;;;;;5.48;49.57;99475.34;6844884;28;20206;-87
2021/12/21 11:12:00;;;;;;;5.07;3.73;;;;;;;5.86;48.39;99451.72;6846208;28;20227;-85
2021/12/21 11:16:18;;;;;;;4.87;3.70;;;;;;;5.70;48.87;99464.09;6846769;28;20213;-86
2021/12/21 11:19:40;;;;;;;5.30;4.53;;;;;;;5.55;49.08;99457.69;6832604;28;20217;-87
2021/12/21 11:23:07;;;;;;;4.33;3.93;;;;;;;5.09;48.63;99373.34;6850126;28;20254;-87
2021/12/21 11:26:40;;;;;;;4.10;3.53;;;;;;;5.62;49.33;99456.03;6849999;29;20203;-87
2021/12/21 11:43:08;;;;;;;4.80;3.37;;;;;;;5.93;48.00;99438.50;6845409;28;20238;-89
2021/12/21 11:46:37;;;;;;;4.93;3.40;;;;;;;6.10;47.89;99429.53;6840606;28;20206;-88
2021/12/21 11:50:01;;;;;;;6.37;3.93;;;;;;;6.24;47.50;99445.81;6847939;28;20204;-89
2021/12/21 11:53:40;;;;;;;4.63;3.67;;;;;;;6.34;47.35;99438.50;6855501;28;20224;-89
2021/12/21 11:57:05;;;;;;;5.47;3.20;;;;;;;6.50;46.89;99430.53;6850115;29;20211;-88
2021/12/21 12:00:34;;;;;;;4.87;3.50;;;;;;;6.54;46.67;99425.66;6852645;29;20210;-87
2021/12/21 12:08:14;;;;;;;8.03;3.77;;;;;;;6.72;46.90;99402.25;6845137;29;20201;-88
2021/12/21 12:11:39;;;;;;;4.57;3.57;;;;;;;7.40;45.43;99422.31;6840149;29;20233;-88
2021/12/21 12:15:04;;;;;;;3.83;3.40;;;;;;;7.39;44.55;99418.81;6841322;29;20211;-87
2021/12/21 12:22:49;;;;;;;3.97;3.23;;;;;;;7.26;45.59;99421.16;6839846;29;20258;-84
2021/12/21 12:26:42;;;;;;;4.47;2.97;;;;;;;6.88;45.67;99421.84;6834068;28;20216;-86
2021/12/21 12:34:26;;;;;;;4.97;3.77;;;;;;;6.79;44.47;99373.78;6776358;29;20249;-85
2021/12/21 12:38:09;;;;;;;4.17;3.77;;;;;;;7.70;44.35;99414.38;6837513;29;20588;-87
2021/12/21 12:55:26;;;;;;;5.70;3.87;;;;;;;7.59;43.82;99405.84;6817206;28;20207;-86
2021/12/21 12:58:53;;;;;;;4.10;3.73;;;;;;;7.69;43.53;99410.03;6837348;29;20338;-88
2021/12/21 13:02:15;;;;;;;4.77;3.60;;;;;;;7.50;43.64;99383.59;6844113;28;20230;-88
2021/12/21 13:05:52;;;;;;;5.10;3.50;;;;;;;7.50;43.95;99393.47;6851422;28;20264;-88
2021/12/21 13:09:18;;;;;;;5.17;3.43;;;;;;;7.54;44.10;99409.03;6850389;29;20238;-88
2021/12/21 13:16:41;;;;;;;4.23;3.83;;;;;;;8.36;42.73;99400.53;6845150;29;20213;-87
2021/12/21 13:20:40;;;;;;;4.77;3.63;;;;;;;8.22;42.59;99401.28;6845706;28;20218;-85
2021/12/21 13:24:09;;;;;;;7.30;3.50;;;;;;;8.22;42.67;99299.19;6800380;29;20215;-85
2021/12/21 13:27:46;;;;;;;4.97;3.93;;;;;;;9.54;40.72;99384.44;6797110;29;20204;-86
2021/12/21 13:31:09;;;;;;;4.10;3.70;;;;;;;8.60;41.75;99360.06;6798794;29;20221;-83
2021/12/21 13:34:31;;;;;;;6.70;4.20;;;;;;;8.16;42.80;99330.28;6798047;29;20209;-86
2021/12/21 13:38:44;;;;;;;4.87;3.63;;;;;;;8.90;42.38;99383.38;6798468;29;20208;-85
2021/12/21 13:46:32;;;;;;;5.70;4.13;;;;;;;9.56;41.75;99395.03;6690435;29;20749;-86
2021/12/21 13:50:12;;;;;;;8.60;4.40;;;;;;;9.51;40.79;99386.66;6671271;29;20218;-83
2021/12/21 13:58:08;;;;;;;4.20;3.70;;;;;;;9.28;41.71;99389.38;6685615;29;20215;-84
2021/12/21 14:06:13;;;;;;;7.40;3.97;;;;;;;8.51;42.64;99316.31;6693157;29;20222;-84
2021/12/21 14:14:30;;;;;;;6.03;3.93;;;;;;;9.08;41.92;99374.78;6698522;29;20221;-87
2021/12/21 14:17:52;;;;;;;6.20;4.10;;;;;;;9.09;41.74;99371.06;6827010;29;20631;-87
2021/12/21 14:21:20;;;;;;;5.50;4.10;;;;;;;8.83;42.02;99326.78;6832961;29;20240;-85
2021/12/21 14:24:42;;;;;;;7.43;4.43;;;;;;;9.18;41.79;99387.97;6851364;28;20303;-87
2021/12/21 14:28:10;;;;;;;4.93;3.90;;;;;;;8.52;42.40;99335.94;6829308;28;20211;-86
2021/12/21 14:31:41;;;;;;;5.90;4.07;;;;;;;7.80;44.77;99395.38;6816819;29;20254;-86
2021/12/21 14:35:04;;;;;;;7.77;4.47;;;;;;;7.92;44.15;99377.88;6833478;29;20217;-84
2021/12/21 14:38:27;;;;;;;4.77;3.90;;;;;;;8.41;43.49;99371.28;6850598;28;20256;-85
2021/12/21 14:41:51;;;;;;;4.30;3.80;;;;;;;8.55;43.49;99397.41;6845692;28;20261;-84
2021/12/21 14:45:18;;;;;;;5.00;3.83;;;;;;;8.22;43.42;99359.16;6822155;29;20208;-83
2021/12/21 14:48:40;;;;;;;5.07;4.20;;;;;;;8.23;44.10;99394.88;6839317;28;20214;-85
2021/12/21 14:52:22;;;;;;;7.40;4.17;;;;;;;8.09;44.69;99409.88;6820062;29;20237;-85
2021/12/21 14:55:46;;;;;;;5.00;4.50;;;;;;;7.53;45.62;99401.16;6823381;29;20256;-87
2021/12/21 14:59:21;;;;;;;7.00;4.93;;;;;;;7.37;46.65;99418.13;6831288;28;20609;-88
2021/12/21 15:02:50;;;;;;;7.17;5.43;;;;;;;6.95;47.15;99406.78;6819967;29;20239;-87
2021/12/21 15:06:12;;;;;;;11.77;5.47;;;;;;;7.23;46.99;99383.97;6829191;29;20203;-86
2021/12/21 15:09:34;;;;;;;7.00;5.80;;;;;;;7.22;46.49;99390.34;6836814;28;20233;-87
2021/12/21 15:12:58;;;;;;;8.30;5.90;;;;;;;7.06;47.25;99414.47;6835071;28;20235;-87
2021/12/21 15:16:19;;;;;;;9.13;5.80;;;;;;;6.75;48.28;99402.75;6835427;28;20222;-87
2021/12/21 15:19:41;;;;;;;11.30;7.20;;;;;;;6.60;48.66;99415.13;6852432;28;20210;-87
2021/12/21 15:23:22;;;;;;;10.60;7.70;;;;;;;6.36;49.79;99408.91;6830551;28;20234;-87
2021/12/21 15:26:59;;;;;;;14.33;8.03;;;;;;;6.46;49.28;99423.81;6852346;29;20214;-86
2021/12/21 15:38:40;;;;;;;15.20;9.50;;;;;;;5.95;49.97;99396.38;6783911;29;20223;-88
2021/12/21 15:42:18;;;;;;;13.07;9.20;;;;;;;6.10;50.07;99426.88;6820572;29;20235;-84
2021/12/21 15:45:40;;;;;;;9.10;7.27;;;;;;;6.07;50.03;99432.56;6805015;29;20225;-83
2021/12/21 15:49:06;;;;;;;8.03;5.73;;;;;;;5.89;49.78;99431.81;6825415;29;20403;-82
2021/12/21 15:56:23;;;;;;;10.30;7.40;;;;;;;5.58;51.23;99438.63;6847337;29;20225;-86
2021/12/21 15:59:48;;;;;;;9.17;7.57;;;;;;;5.51;51.33;99429.56;6843194;28;20208;-85
2021/12/21 16:11:37;;;;;;;9.67;7.93;;;;;;;5.29;52.09;99444.28;6815932;29;20225;-87
2021/12/21 16:14:58;;;;;;;11.67;7.30;;;;;;;4.67;52.26;99376.84;6832096;28;20206;-86
2021/12/21 16:18:23;;;;;;;8.80;6.50;;;;;;;5.28;51.52;99449.78;6835635;29;20210;-86
2021/12/21 16:21:46;;;;;;;10.10;7.63;;;;;;;5.27;50.85;99418.72;6850368;28;20237;-85
2021/12/21 16:41:55;;;;;;;7.63;5.27;;;;;;;5.35;49.84;99459.72;6805237;29;20242;-87
2021/12/21 16:45:24;;;;;;;5.37;4.87;;;;;;;5.56;49.44;99454.84;6804305;29;20218;-87
2021/12/21 16:48:45;;;;;;;5.80;5.10;;;;;;;5.71;48.99;99461.28;6802599;29;20230;-86
2021/12/21 16:52:08;;;;;;;8.93;4.80;;;;;;;5.18;48.86;99360.88;6802257;29;20219;-87
2021/12/21 16:56:01;;;;;;;11.83;8.20;;;;;;;5.59;48.60;99456.34;6802179;29;20203;-86
2021/12/21 17:50:38;;;;;;;11.83;7.83;;;;;;;4.02;53.31;99515.94;6500483;30;20229;-84
2021/12/21 17:54:00;;;;;;;12.40;7.60;;;;;;;4.04;53.26;99503.28;6518942;30;20359;-85
2021/12/21 17:57:22;;;;;;;9.97;7.87;;;;;;;4.08;52.77;99524.16;6538466;30;20206;-84
2021/12/21 18:01:04;;;;;;;12.60;7.63;;;;;;;4.05;53.15;99520.97;6690331;29;20248;-83
2021/12/21 18:04:26;;;;;;;10.67;8.13;;;;;;;3.93;53.50;99479.44;6738461;29;20247;-83
2021/12/21 18:07:49;;;;;;;12.00;8.53;;;;;;;3.86;52.84;99513.03;6740991;29;20215;-83
2021/12/21 18:11:14;;;;;;;8.00;6.47;;;;;;;3.44;52.67;99448.63;6739998;29;20265;-86
2021/12/21 18:14:36;;;;;;;9.97;7.37;;;;;;;3.81;52.41;99515.28;6738786;29;20213;-85
2021/12/21 18:17:59;;;;;;;9.53;8.03;;;;;;;3.61;53.41;99529.69;6769963;29;20662;-85
2021/12/21 18:21:20;;;;;;;9.47;7.63;;;;;;;3.04;54.72;99538.59;6809479;29;20222;-85
2021/12/21 18:24:44;;;;;;;8.87;7.77;;;;;;;2.81;55.75;99518.53;6787978;29;20282;-84
2021/12/21 18:28:05;;;;;;;10.33;7.97;;;;;;;2.98;55.75;99543.63;6846611;29;20209;-83
2021/12/21 18:35:28;;;;;;;11.90;8.37;;;;;;;3.08;54.92;99491.19;6829045;28;20283;-82
2021/12/21 18:38:58;;;;;;;9.53;7.10;;;;;;;3.52;53.98;99550.03;6836692;29;20209;-83
2021/12/21 18:46:11;;;;;;;15.10;9.97;;;;;;;3.15;54.05;99519.78;6832128;28;20198;-85
2021/12/21 18:49:33;;;;;;;15.70;9.07;;;;;;;3.24;54.16;99537.56;6842144;28;20197;-84
2021/12/21 18:52:55;;;;;;;11.23;8.13;;;;;;;2.90;54.27;99524.84;6841456;28;20236;-84
2021/12/21 18:56:17;;;;;;;12.93;7.93;;;;;;;2.92;55.04;99541.50;6827187;28;20205;-85
2021/12/21 18:59:40;;;;;;;14.87;9.17;;;;;;;2.54;55.53;99558.25;6839831;28;20214;-85
2021/12/21 19:11:26;;;;;;;23.37;14.70;;;;;;;2.51;56.98;99557.69;6767909;29;20241;-82
2021/12/21 19:14:49;;;;;;;23.50;19.50;;;;;;;1.99;56.67;99473.69;6799960;28;20214;-86
2021/12/21 19:18:11;;;;;;;14.87;10.87;;;;;;;2.47;56.23;99538.50;6845128;29;20216;-86
2021/12/21 19:21:34;;;;;;;16.37;10.60;;;;;;;2.85;55.81;99548.38;6843895;28;20225;-85
2021/12/21 19:50:55;;;;;;;13.67;9.80;;;;;;;2.76;54.79;99576.66;6534788;30;20236;-85
2021/12/21 19:54:19;;;;;;;23.73;14.03;;;;;;;2.85;54.42;99573.19;6627737;29;20213;-84
2021/12/21 20:05:38;;;;;;;19.13;11.90;;;;;;;1.90;56.09;99570.19;6614979;30;20234;-84
2021/12/21 20:09:03;;;;;;;16.13;11.53;;;;;;;2.31;55.59;99579.91;6640507;29;20202;-84
2021/12/21 20:12:28;;;;;;;22.43;12.60;;;;;;;2.13;55.63;99587.66;6669743;29;20259;-81
2021/12/21 20:15:50;;;;;;;19.90;12.33;;;;;;;2.16;55.71;99579.44;6693555;29;20205;-81
2021/12/21 20:19:58;;;;;;;19.77;11.73;;;;;;;2.44;55.16;99580.50;6682637;29;20221;-85
2021/12/21 20:27:27;;;;;;;26.43;20.03;;;;;;;2.00;55.65;99548.97;6747105;29;20210;-86
2021/12/21 20:30:55;;;;;;;25.13;16.77;;;;;;;1.82;55.20;99500.91;6774372;29;20223;-85
2021/12/21 20:38:25;;;;;;;31.60;19.33;;;;;;;2.36;55.22;99585.69;6804030;29;20219;-87
2021/12/21 20:41:47;;;;;;;26.73;16.90;;;;;;;2.04;55.17;99600.91;6830505;28;20776;-85
2021/12/21 20:45:35;;;;;;;23.40;14.17;;;;;;;1.37;56.04;99602.31;6846545;28;20253;-85
2021/12/21 20:49:06;;;;;;;21.80;15.27;;;;;;;1.89;55.83;99595.09;6843022;28;20329;-84
2021/12/21 20:52:27;;;;;;;25.67;15.93;;;;;;;2.14;55.54;99607.13;6844495;28;20244;-85
2021/12/21 20:55:50;;;;;;;23.60;14.57;;;;;;;1.96;55.39;99574.16;6839704;28;20220;-84
2021/12/21 20:59:19;;;;;;;22.23;15.47;;;;;;;1.83;55.29;99590.31;6840147;28;20194;-84
2021/12/21 21:02:42;;;;;;;23.73;14.77;;;;;;;2.15;54.87;99598.19;6844130;29;20229;-83
2021/12/21 21:06:05;;;;;;;22.73;16.43;;;;;;;1.86;55.27;99615.81;6844212;29;20202;-82
2021/12/21 21:09:27;;;;;;;22.20;14.73;;;;;;;1.75;54.99;99589.28;6846570;28;20237;-82
2021/12/21 21:12:49;;;;;;;27.60;16.83;;;;;;;1.75;55.05;99616.72;6849590;28;20235;-83
2021/12/21 21:16:13;;;;;;;27.77;17.70;;;;;;;1.01;55.21;99553.09;6857895;28;20201;-83
2021/12/21 21:19:37;;;;;;;26.37;16.67;;;;;;;1.42;55.32;99611.56;6850000;28;20214;-85
2021/12/21 21:22:59;;;;;;;30.50;17.70;;;;;;;1.61;55.84;99619.69;6846481;28;20292;-82
2021/12/21 21:26:23;;;;;;;22.30;15.77;;;;;;;1.37;55.83;99604.97;6852014;29;20202;-82
2021/12/21 21:29:44;;;;;;;23.17;15.27;;;;;;;1.51;56.10;99599.34;6855948;28;20217;-81
2021/12/21 21:33:06;;;;;;;25.37;14.87;;;;;;;1.12;56.15;99581.44;6849110;29;20243;-82
2021/12/21 21:36:29;;;;;;;21.50;15.00;;;;;;;1.03;57.02;99595.47;6854651;28;20194;-82
2021/12/21 21:39:51;;;;;;;23.93;16.23;;;;;;;1.21;57.46;99608.06;6854131;29;20202;-79
2021/12/21 21:43:12;;;;;;;21.50;15.60;;;;;;;0.96;58.02;99608.38;6849236;28;20693;-82
2021/12/21 21:46:34;;;;;;;23.67;15.97;;;;;;;0.98;58.02;99571.97;6850842;28;20210;-79
2021/12/21 21:49:57;;;;;;;21.50;15.40;;;;;;;1.22;57.78;99599.13;6844034;28;20205;-79
2021/12/21 21:53:39;;;;;;;23.53;14.73;;;;;;;1.72;57.20;99621.47;6852670;28;20278;-82
2021/12/21 21:57:00;;;;;;;21.13;14.30;;;;;;;1.69;56.74;99635.00;6854023;29;20229;-80
